Time,TemperatureF,DewpointF,PressureIn,WindDirection,WindDirectionDegrees,WindSpeedMPH,WindSpeedGustMPH,Humidity,HourlyPrecipIn,Conditions,Clouds,dailyrainin,SoftwareType,DateUTC
2013-04-29 00:00:00,55.0,50.0,-100.00,SE,140,2.0,8.0,84,-99.99,,,-99.99,,2013-04-29 04:00:00,
2013-04-29 00:23:00,55.0,50.0,-100.00,SE,140,2.0,8.0,84,-99.99,,,-99.99,,2013-04-29 04:23:00,
2013-04-29 00:33:00,55.0,50.0,-100.00,SE,140,2.0,8.0,84,-99.99,,,-99.99,,2013-04-29 04:33:00,
2013-04-29 00:43:00,55.0,50.0,-100.00,SE,140,2.0,8.0,84,-99.99,,,-99.99,,2013-04-29 04:43:00,
2013-04-29 00:52:00,55.0,50.0,-100.00,SE,140,2.0,8.0,84,-99.99,,,-99.99,,2013-04-29 04:52:00,
2013-04-29 01:00:00,55.0,51.0,-100.00,SSE,156,4.0,7.0,86,-99.99,,,-99.99,,2013-04-29 05:00:00,
2013-04-29 01:22:00,55.0,51.0,-100.00,SSE,156,4.0,7.0,86,-99.99,,,-99.99,,2013-04-29 05:22:00,
2013-04-29 01:32:00,55.0,51.0,-100.00,SSE,156,4.0,7.0,86,-99.99,,,-99.99,,2013-04-29 05:32:00,
2013-04-29 01:42:00,55.0,51.0,-100.00,SSE,156,4.0,7.0,86,-99.99,,,-99.99,,2013-04-29 05:42:00,
2013-04-29 01:52:00,55.0,51.0,-100.00,SSE,156,4.0,7.0,86,-99.99,,,-99.99,,2013-04-29 05:52:00,
2013-04-29 02:00:00,54.0,51.0,-100.00,SSE,158,5.0,7.0,88,-99.99,,,-99.99,,2013-04-29 06:00:00,
2013-04-29 02:22:00,54.0,51.0,-100.00,SSE,158,5.0,7.0,88,-99.99,,,-99.99,,2013-04-29 06:22:00,
2013-04-29 02:32:00,54.0,51.0,-100.00,SSE,158,5.0,7.0,88,-99.99,,,-99.99,,2013-04-29 06:32:00,
2013-04-29 02:42:00,54.0,51.0,-100.00,SSE,158,5.0,7.0,88,-99.99,,,-99.99,,2013-04-29 06:42:00,
2013-04-29 02:52:00,54.0,51.0,-100.00,SSE,158,5.0,7.0,88,-99.99,,,-99.99,,2013-04-29 06:52:00,
2013-04-29 03:00:00,54.0,52.0,-100.00,SE,143,8.0,11.0,93,-99.99,,,-99.99,,2013-04-29 07:00:00,
2013-04-29 03:22:00,54.0,52.0,-100.00,SE,143,8.0,11.0,93,-99.99,,,-99.99,,2013-04-29 07:22:00,
2013-04-29 03:32:00,54.0,52.0,-100.00,SE,143,8.0,11.0,93,-99.99,,,-99.99,,2013-04-29 07:32:00,
2013-04-29 03:42:00,54.0,52.0,-100.00,SE,143,8.0,11.0,93,-99.99,,,-99.99,,2013-04-29 07:42:00,
2013-04-29 03:52:00,54.0,52.0,-100.00,SE,143,8.0,11.0,93,-99.99,,,-99.99,,2013-04-29 07:52:00,
2013-04-29 04:00:00,54.0,52.0,-100.00,South,170,3.0,12.0,95,-99.99,,,-99.99,,2013-04-29 08:00:00,
2013-04-29 04:32:00,54.0,52.0,-100.00,South,170,3.0,12.0,95,-99.99,,,-99.99,,2013-04-29 08:32:00,
2013-04-29 04:42:00,54.0,52.0,-100.00,South,170,3.0,12.0,95,-99.99,,,-99.99,,2013-04-29 08:42:00,
2013-04-29 04:52:00,54.0,52.0,-100.00,South,170,3.0,12.0,95,-99.99,,,-99.99,,2013-04-29 08:52:00,
2013-04-29 05:00:00,53.0,52.0,-100.00,SE,131,6.0,11.0,97,-99.99,,,-99.99,,2013-04-29 09:00:00,
2013-04-29 05:22:00,53.0,52.0,-100.00,SE,131,6.0,11.0,97,-99.99,,,-99.99,,2013-04-29 09:22:00,
2013-04-29 05:33:00,53.0,52.0,-100.00,SE,131,6.0,11.0,97,-99.99,,,-99.99,,2013-04-29 09:33:00,
2013-04-29 05:42:00,53.0,52.0,-100.00,SE,131,6.0,11.0,97,-99.99,,,-99.99,,2013-04-29 09:42:00,
2013-04-29 05:53:00,53.0,52.0,-100.00,SE,131,6.0,11.0,97,-99.99,,,-99.99,,2013-04-29 09:53:00,
2013-04-29 06:00:00,53.0,53.0,-100.00,South,171,5.0,11.0,98,-99.99,,,-99.99,,2013-04-29 10:00:00,
2013-04-29 06:23:00,53.0,53.0,-100.00,South,171,5.0,11.0,98,-99.99,,,-99.99,,2013-04-29 10:23:00,
2013-04-29 06:32:00,53.0,53.0,-100.00,South,171,5.0,11.0,98,-99.99,,,-99.99,,2013-04-29 10:32:00,
2013-04-29 06:42:00,53.0,53.0,-100.00,South,171,5.0,11.0,98,-99.99,,,-99.99,,2013-04-29 10:42:00,
2013-04-29 06:52:00,53.0,53.0,-100.00,South,171,5.0,11.0,98,-99.99,,,-99.99,,2013-04-29 10:52:00,
2013-04-29 07:00:00,53.0,53.0,-100.00,ESE,119,10.0,12.0,98,-99.99,,,-99.99,,2013-04-29 11:00:00,
2013-04-29 07:22:00,53.0,53.0,-100.00,ESE,119,10.0,12.0,98,-99.99,,,-99.99,,2013-04-29 11:22:00,
2013-04-29 07:32:00,53.0,53.0,-100.00,ESE,119,10.0,12.0,98,-99.99,,,-99.99,,2013-04-29 11:32:00,
2013-04-29 07:42:00,53.0,53.0,-100.00,ESE,119,10.0,12.0,98,-99.99,,,-99.99,,2013-04-29 11:42:00,
2013-04-29 07:52:00,53.0,53.0,-100.00,ESE,119,10.0,12.0,98,-99.99,,,-99.99,,2013-04-29 11:52:00,
2013-04-29 08:00:00,54.0,54.0,-100.00,SE,138,5.0,15.0,98,-99.99,,,-99.99,,2013-04-29 12:00:00,
2013-04-29 08:22:00,54.0,54.0,-100.00,SE,138,5.0,15.0,98,-99.99,,,-99.99,,2013-04-29 12:22:00,
2013-04-29 08:32:00,54.0,54.0,-100.00,SE,138,5.0,15.0,98,-99.99,,,-99.99,,2013-04-29 12:32:00,
2013-04-29 08:42:00,54.0,54.0,-100.00,SE,138,5.0,15.0,98,-99.99,,,-99.99,,2013-04-29 12:42:00,
2013-04-29 08:52:00,54.0,54.0,-100.00,SE,138,5.0,15.0,98,-99.99,,,-99.99,,2013-04-29 12:52:00,
2013-04-29 09:00:00,54.0,54.0,-100.00,SE,134,9.0,16.0,98,-99.99,,,-99.99,,2013-04-29 13:00:00,
2013-04-29 09:22:00,54.0,54.0,-100.00,SE,134,9.0,16.0,98,-99.99,,,-99.99,,2013-04-29 13:22:00,
2013-04-29 09:32:00,54.0,54.0,-100.00,SE,134,9.0,16.0,98,-99.99,,,-99.99,,2013-04-29 13:32:00,
2013-04-29 09:42:00,54.0,54.0,-100.00,SE,134,9.0,16.0,98,-99.99,,,-99.99,,2013-04-29 13:42:00,
2013-04-29 09:52:00,54.0,54.0,-100.00,SE,134,9.0,16.0,98,-99.99,,,-99.99,,2013-04-29 13:52:00,
2013-04-29 10:00:00,55.0,54.0,-100.00,ESE,120,5.0,17.0,98,-99.99,,,-99.99,,2013-04-29 14:00:00,
2013-04-29 10:22:00,55.0,54.0,-100.00,ESE,120,5.0,17.0,98,-99.99,,,-99.99,,2013-04-29 14:22:00,
2013-04-29 10:32:00,55.0,54.0,-100.00,ESE,120,5.0,17.0,98,-99.99,,,-99.99,,2013-04-29 14:32:00,
2013-04-29 10:42:00,55.0,54.0,-100.00,ESE,120,5.0,17.0,98,-99.99,,,-99.99,,2013-04-29 14:42:00,
2013-04-29 10:52:00,55.0,54.0,-100.00,ESE,120,5.0,17.0,98,-99.99,,,-99.99,,2013-04-29 14:52:00,
2013-04-29 11:00:00,55.0,54.0,-100.00,South,174,6.0,17.0,98,-99.99,,,-99.99,,2013-04-29 15:00:00,
2013-04-29 11:22:00,55.0,54.0,-100.00,South,174,6.0,17.0,98,-99.99,,,-99.99,,2013-04-29 15:22:00,
2013-04-29 11:33:00,55.0,54.0,-100.00,South,174,6.0,17.0,98,-99.99,,,-99.99,,2013-04-29 15:33:00,
2013-04-29 11:43:00,55.0,54.0,-100.00,South,174,6.0,17.0,98,-99.99,,,-99.99,,2013-04-29 15:43:00,
2013-04-29 11:53:00,55.0,54.0,-100.00,South,174,6.0,17.0,98,-99.99,,,-99.99,,2013-04-29 15:53:00,
2013-04-29 12:00:00,55.0,54.0,-100.00,SE,141,9.0,14.0,98,-99.99,,,-99.99,,2013-04-29 16:00:00,
2013-04-29 12:23:00,55.0,54.0,-100.00,SE,141,9.0,14.0,98,-99.99,,,-99.99,,2013-04-29 16:23:00,
2013-04-29 12:33:00,55.0,54.0,-100.00,SE,141,9.0,14.0,98,-99.99,,,-99.99,,2013-04-29 16:33:00,
2013-04-29 12:42:00,55.0,54.0,-100.00,SE,141,9.0,14.0,98,-99.99,,,-99.99,,2013-04-29 16:42:00,
2013-04-29 12:52:00,55.0,54.0,-100.00,SE,141,9.0,14.0,98,-99.99,,,-99.99,,2013-04-29 16:52:00,
2013-04-29 13:00:00,56.0,55.0,-100.00,SE,134,9.0,16.0,98,-99.99,,,-99.99,,2013-04-29 17:00:00,
2013-04-29 13:23:00,56.0,55.0,-100.00,SE,134,9.0,16.0,98,-99.99,,,-99.99,,2013-04-29 17:23:00,
2013-04-29 13:32:00,56.0,55.0,-100.00,SE,134,9.0,16.0,98,-99.99,,,-99.99,,2013-04-29 17:32:00,
2013-04-29 13:42:00,56.0,55.0,-100.00,SE,134,9.0,16.0,98,-99.99,,,-99.99,,2013-04-29 17:42:00,
2013-04-29 13:52:00,56.0,55.0,-100.00,SE,134,9.0,16.0,98,-99.99,,,-99.99,,2013-04-29 17:52:00,
2013-04-29 14:00:00,55.0,54.0,-100.00,SSE,148,6.0,15.0,98,-99.99,,,-99.99,,2013-04-29 18:00:00,
2013-04-29 14:32:00,55.0,54.0,-100.00,SSE,148,6.0,15.0,98,-99.99,,,-99.99,,2013-04-29 18:32:00,
2013-04-29 14:42:00,55.0,54.0,-100.00,SSE,148,6.0,15.0,98,-99.99,,,-99.99,,2013-04-29 18:42:00,
2013-04-29 14:52:00,55.0,54.0,-100.00,SSE,148,6.0,15.0,98,-99.99,,,-99.99,,2013-04-29 18:52:00,
2013-04-29 15:00:00,56.0,55.0,-100.00,SSE,147,4.0,15.0,98,-99.99,,,-99.99,,2013-04-29 19:00:00,
2013-04-29 15:32:00,56.0,55.0,-100.00,SSE,147,4.0,15.0,98,-99.99,,,-99.99,,2013-04-29 19:32:00,
2013-04-29 15:42:00,56.0,55.0,-100.00,SSE,147,4.0,15.0,98,-99.99,,,-99.99,,2013-04-29 19:42:00,
2013-04-29 15:52:00,56.0,55.0,-100.00,SSE,147,4.0,15.0,98,-99.99,,,-99.99,,2013-04-29 19:52:00,
2013-04-29 16:00:00,56.0,55.0,-100.00,SE,125,11.0,16.0,98,-99.99,,,-99.99,,2013-04-29 20:00:00,
2013-04-29 16:22:00,56.0,55.0,-100.00,SE,125,11.0,16.0,98,-99.99,,,-99.99,,2013-04-29 20:22:00,
2013-04-29 16:32:00,56.0,55.0,-100.00,SE,125,11.0,16.0,98,-99.99,,,-99.99,,2013-04-29 20:32:00,
2013-04-29 16:43:00,56.0,55.0,-100.00,SE,125,11.0,16.0,98,-99.99,,,-99.99,,2013-04-29 20:43:00,
2013-04-29 16:52:00,56.0,55.0,-100.00,SE,125,11.0,16.0,98,-99.99,,,-99.99,,2013-04-29 20:52:00,
2013-04-29 17:00:00,55.0,54.0,-100.00,SSE,154,6.0,15.0,98,-99.99,,,-99.99,,2013-04-29 21:00:00,
2013-04-29 17:33:00,55.0,54.0,-100.00,SSE,154,6.0,15.0,98,-99.99,,,-99.99,,2013-04-29 21:33:00,
2013-04-29 17:43:00,55.0,54.0,-100.00,SSE,154,6.0,15.0,98,-99.99,,,-99.99,,2013-04-29 21:43:00,
2013-04-29 17:53:00,55.0,54.0,-100.00,SSE,154,6.0,15.0,98,-99.99,,,-99.99,,2013-04-29 21:53:00,
2013-04-29 18:00:00,55.0,54.0,-100.00,South,170,10.0,14.0,98,-99.99,,,-99.99,,2013-04-29 22:00:00,
2013-04-29 18:23:00,55.0,54.0,-100.00,South,170,10.0,14.0,98,-99.99,,,-99.99,,2013-04-29 22:23:00,
2013-04-29 18:32:00,55.0,54.0,-100.00,South,170,10.0,14.0,98,-99.99,,,-99.99,,2013-04-29 22:32:00,
2013-04-29 18:42:00,55.0,54.0,-100.00,South,170,10.0,14.0,98,-99.99,,,-99.99,,2013-04-29 22:42:00,
2013-04-29 18:53:00,55.0,54.0,-100.00,South,170,10.0,14.0,98,-99.99,,,-99.99,,2013-04-29 22:53:00,
2013-04-29 19:00:00,54.0,53.0,-100.00,ESE,119,5.0,13.0,98,-99.99,,,-99.99,,2013-04-29 23:00:00,
2013-04-29 19:22:00,54.0,53.0,-100.00,ESE,119,5.0,13.0,98,-99.99,,,-99.99,,2013-04-29 23:22:00,
2013-04-29 19:32:00,54.0,53.0,-100.00,ESE,119,5.0,13.0,98,-99.99,,,-99.99,,2013-04-29 23:32:00,
2013-04-29 19:42:00,54.0,53.0,-100.00,ESE,119,5.0,13.0,98,-99.99,,,-99.99,,2013-04-29 23:42:00,
2013-04-29 19:53:00,54.0,53.0,-100.00,ESE,119,5.0,13.0,98,-99.99,,,-99.99,,2013-04-29 23:53:00,
2013-04-29 20:00:00,53.0,52.0,-100.00,SE,133,5.0,14.0,98,-99.99,,,-99.99,,2013-04-30 00:00:00,
2013-04-29 20:32:00,53.0,52.0,-100.00,SE,133,5.0,14.0,98,-99.99,,,-99.99,,2013-04-30 00:32:00,
2013-04-29 20:42:00,53.0,52.0,-100.00,SE,133,5.0,14.0,98,-99.99,,,-99.99,,2013-04-30 00:42:00,
2013-04-29 20:52:00,53.0,52.0,-100.00,SE,133,5.0,14.0,98,-99.99,,,-99.99,,2013-04-30 00:52:00,
2013-04-29 21:00:00,53.0,52.0,-100.00,ESE,123,6.0,13.0,97,-99.99,,,-99.99,,2013-04-30 01:00:00,
2013-04-29 21:22:00,53.0,52.0,-100.00,ESE,123,6.0,13.0,97,-99.99,,,-99.99,,2013-04-30 01:22:00,
2013-04-29 21:32:00,53.0,52.0,-100.00,ESE,123,6.0,13.0,97,-99.99,,,-99.99,,2013-04-30 01:32:00,
2013-04-29 21:42:00,53.0,52.0,-100.00,ESE,123,6.0,13.0,97,-99.99,,,-99.99,,2013-04-30 01:42:00,
2013-04-29 21:52:00,53.0,52.0,-100.00,ESE,123,6.0,13.0,97,-99.99,,,-99.99,,2013-04-30 01:52:00,
2013-04-29 22:00:00,54.0,53.0,-100.00,ESE,110,6.0,14.0,97,-99.99,,,-99.99,,2013-04-30 02:00:00,
2013-04-29 22:21:00,54.0,53.0,-100.00,ESE,110,6.0,14.0,97,-99.99,,,-99.99,,2013-04-30 02:21:00,
2013-04-29 22:32:00,54.0,53.0,-100.00,ESE,110,6.0,14.0,97,-99.99,,,-99.99,,2013-04-30 02:32:00,
2013-04-29 22:42:00,54.0,53.0,-100.00,ESE,110,6.0,14.0,97,-99.99,,,-99.99,,2013-04-30 02:42:00,
2013-04-29 22:52:00,54.0,53.0,-100.00,ESE,110,6.0,14.0,97,-99.99,,,-99.99,,2013-04-30 02:52:00,
2013-04-29 23:00:00,54.0,53.0,-100.00,ESE,112,10.0,16.0,98,-99.99,,,-99.99,,2013-04-30 03:00:00,
2013-04-29 23:22:00,54.0,53.0,-100.00,ESE,112,10.0,16.0,98,-99.99,,,-99.99,,2013-04-30 03:22:00,
2013-04-29 23:33:00,54.0,53.0,-100.00,ESE,112,10.0,16.0,98,-99.99,,,-99.99,,2013-04-30 03:33:00,
2013-04-29 23:43:00,54.0,53.0,-100.00,ESE,112,10.0,16.0,98,-99.99,,,-99.99,,2013-04-30 03:43:00,
2013-04-29 23:53:00,54.0,53.0,-100.00,ESE,112,10.0,16.0,98,-99.99,,,-99.99,,2013-04-30 03:53:00,